createdAt,value
2022-12-03T00:00:29.495Z,12.13
2022-12-03T00:02:55.956Z,11.80
2022-12-03T00:05:22.372Z,12.43
2022-12-03T00:07:49.918Z,12.73
2022-12-03T00:10:16.372Z,12.80
2022-12-03T00:12:42.731Z,14.30
2022-12-03T00:15:12.936Z,14.63
2022-12-03T00:17:39.346Z,14.00
2022-12-03T00:20:16.785Z,15.55
2022-12-03T00:22:43.181Z,13.35
2022-12-03T00:25:09.742Z,14.10
2022-12-03T00:27:36.069Z,14.55
2022-12-03T00:30:02.710Z,14.80
2022-12-03T00:32:29.046Z,14.57
2022-12-03T00:34:55.713Z,14.70
2022-12-03T00:37:22.231Z,15.95
2022-12-03T00:39:48.661Z,15.52
2022-12-03T00:42:15.071Z,15.00
2022-12-03T00:44:41.442Z,17.20
2022-12-03T00:47:07.901Z,16.95
2022-12-03T00:49:34.276Z,16.08
2022-12-03T00:52:00.746Z,16.42
2022-12-03T00:54:31.920Z,15.65
2022-12-03T00:56:58.905Z,16.60
2022-12-03T00:59:25.335Z,16.50
2022-12-03T01:01:51.784Z,15.35
2022-12-03T01:04:18.283Z,15.77
2022-12-03T01:06:44.693Z,15.18
2022-12-03T01:09:11.082Z,16.75
2022-12-03T01:11:37.491Z,15.30
2022-12-03T01:14:08.412Z,15.23
2022-12-03T01:16:35.392Z,15.13
2022-12-03T01:19:02.101Z,15.35
2022-12-03T01:21:28.590Z,15.02
2022-12-03T01:23:54.995Z,15.23
2022-12-03T01:26:21.430Z,15.75
2022-12-03T01:28:47.802Z,15.70
2022-12-03T01:31:33.170Z,14.95
2022-12-03T01:33:59.605Z,15.07
2022-12-03T01:36:26.029Z,15.50
2022-12-03T01:38:52.359Z,14.75
2022-12-03T01:41:19.521Z,15.23
2022-12-03T01:43:46.189Z,14.45
2022-12-03T01:46:14.692Z,14.60
2022-12-03T01:48:41.174Z,14.35
2022-12-03T01:51:07.776Z,14.30
2022-12-03T01:53:34.246Z,14.50
2022-12-03T01:56:00.722Z,14.75
2022-12-03T01:58:28.656Z,14.05
2022-12-03T02:00:55.249Z,14.02
2022-12-03T02:03:24.825Z,13.98
2022-12-03T02:05:51.645Z,13.00
2022-12-03T02:08:36.949Z,14.07
2022-12-03T02:11:09.153Z,13.05
2022-12-03T02:13:36.020Z,13.38
2022-12-03T02:16:03.627Z,13.82
2022-12-03T02:18:30.136Z,13.25
2022-12-03T02:21:08.434Z,13.13
2022-12-03T02:23:55.440Z,12.48
2022-12-03T02:26:21.788Z,13.20
2022-12-03T02:28:48.116Z,12.15
2022-12-03T02:31:14.553Z,12.77
2022-12-03T02:33:40.993Z,12.85
2022-12-03T02:36:07.599Z,13.18
2022-12-03T02:38:34.539Z,13.35
2022-12-03T02:41:04.661Z,13.10
2022-12-03T02:43:31.196Z,12.23
2022-12-03T02:45:59.492Z,11.57
2022-12-03T02:48:27.712Z,12.88
2022-12-03T02:50:56.259Z,12.05
2022-12-03T02:53:28.861Z,11.93
2022-12-03T02:55:58.260Z,12.07
2022-12-03T02:58:25.556Z,12.55
2022-12-03T03:00:53.191Z,11.18
2022-12-03T03:03:21.164Z,11.63
2022-12-03T03:05:48.166Z,11.20
2022-12-03T03:08:14.681Z,11.15
2022-12-03T03:10:42.208Z,10.57
2022-12-03T03:13:13.353Z,11.30
2022-12-03T03:15:40.660Z,10.80
2022-12-03T03:18:08.249Z,10.82
2022-12-03T03:20:34.988Z,10.57
2022-12-03T03:23:07.051Z,10.27
2022-12-03T03:25:33.410Z,10.10
2022-12-03T03:27:59.864Z,10.10
2022-12-03T03:30:29.084Z,10.20
2022-12-03T03:32:55.459Z,10.35
2022-12-03T03:35:23.815Z,10.43
2022-12-03T03:37:50.524Z,10.80
2022-12-03T03:40:17.313Z,10.50
2022-12-03T03:42:43.729Z,11.07
2022-12-03T03:45:10.317Z,9.98
2022-12-03T03:47:37.100Z,10.25
2022-12-03T03:50:03.573Z,10.18
2022-12-03T03:52:30.264Z,10.75
2022-12-03T03:54:56.699Z,9.88
2022-12-03T03:57:23.214Z,11.27
2022-12-03T03:59:49.628Z,9.80
2022-12-03T04:02:24.885Z,10.27
2022-12-03T04:04:51.797Z,10.18
2022-12-03T04:07:18.458Z,10.82
2022-12-03T04:09:44.889Z,10.38
2022-12-03T04:12:33.212Z,11.32
2022-12-03T04:14:59.682Z,9.43
2022-12-03T04:17:26.031Z,10.50
2022-12-03T04:19:52.353Z,9.50
2022-12-03T04:22:37.508Z,10.57
2022-12-03T04:25:23.086Z,9.57
2022-12-03T04:28:07.774Z,10.00
2022-12-03T04:30:34.151Z,9.85
2022-12-03T04:33:19.209Z,10.35
2022-12-03T04:35:45.697Z,9.90
2022-12-03T04:38:14.033Z,10.25
2022-12-03T04:40:59.128Z,10.20
2022-12-03T04:43:25.641Z,9.82
2022-12-03T04:45:52.041Z,9.93
2022-12-03T04:48:18.451Z,10.95
2022-12-03T04:50:44.865Z,10.80
2022-12-03T04:53:11.199Z,10.10
2022-12-03T04:55:37.530Z,9.32
2022-12-03T04:58:04.270Z,9.13
2022-12-03T05:00:30.652Z,9.43
2022-12-03T05:02:57.134Z,9.32
2022-12-03T05:05:23.576Z,9.65
2022-12-03T05:07:49.965Z,9.43
2022-12-03T05:10:16.437Z,9.75
2022-12-03T05:12:42.855Z,8.70
2022-12-03T05:15:09.592Z,9.45
2022-12-03T05:17:35.935Z,10.15
2022-12-03T05:20:20.697Z,9.48
2022-12-03T05:22:47.093Z,9.68
2022-12-03T05:25:13.443Z,10.52
2022-12-03T05:27:39.777Z,9.05
2022-12-03T05:30:06.756Z,9.25
2022-12-03T05:32:33.075Z,9.38
2022-12-03T05:34:59.437Z,10.25
2022-12-03T05:37:25.828Z,10.00
2022-12-03T05:39:52.230Z,9.88
2022-12-03T05:42:37.156Z,9.93
2022-12-03T05:45:03.682Z,9.90
2022-12-03T05:47:30.044Z,9.25
2022-12-03T05:49:56.397Z,10.57
2022-12-03T05:52:22.803Z,9.65
2022-12-03T05:54:49.469Z,10.02
2022-12-03T05:57:15.786Z,10.23
2022-12-03T05:59:42.165Z,10.32
2022-12-03T06:02:08.568Z,10.65
2022-12-03T06:04:35.136Z,9.75
2022-12-03T06:07:01.492Z,10.35
2022-12-03T06:09:27.878Z,10.48
2022-12-03T06:11:54.236Z,10.60
2022-12-03T06:14:21.134Z,10.88
2022-12-03T06:16:47.545Z,11.82
2022-12-03T06:19:13.907Z,10.82
2022-12-03T06:21:40.243Z,10.75
2022-12-03T06:24:06.656Z,10.35
2022-12-03T06:26:33.021Z,10.30
2022-12-03T06:28:59.401Z,9.75
2022-12-03T06:31:25.794Z,11.32
2022-12-03T06:33:52.137Z,9.73
2022-12-03T06:36:22.746Z,10.10
2022-12-03T06:38:49.692Z,9.48
2022-12-03T06:41:16.044Z,9.80
2022-12-03T06:43:42.410Z,10.45
2022-12-03T06:46:08.849Z,10.52
2022-12-03T06:48:35.264Z,11.05
2022-12-03T06:51:01.641Z,11.70
2022-12-03T06:53:28.049Z,10.73
2022-12-03T06:55:54.448Z,11.60
2022-12-03T06:58:20.822Z,11.18
2022-12-03T07:00:47.150Z,10.82
2022-12-03T07:03:13.582Z,11.15
2022-12-03T07:05:39.990Z,11.55
2022-12-03T07:08:06.568Z,9.95
2022-12-03T07:10:32.984Z,11.07
2022-12-03T07:12:59.408Z,11.27
2022-12-03T07:15:25.746Z,12.63
2022-12-03T07:17:52.216Z,11.20
2022-12-03T07:20:18.623Z,11.63
2022-12-03T07:22:44.949Z,11.07
2022-12-03T07:25:12.618Z,10.63
2022-12-03T07:27:39.174Z,11.57
2022-12-03T07:30:06.742Z,11.73
2022-12-03T07:32:33.110Z,11.82
2022-12-03T07:35:00.922Z,11.90
2022-12-03T07:37:27.312Z,12.65
2022-12-03T07:39:54.638Z,11.82
2022-12-03T07:42:21.004Z,12.40
2022-12-03T07:44:47.356Z,12.63
2022-12-03T07:47:13.732Z,12.00
2022-12-03T07:49:40.062Z,11.65
2022-12-03T07:52:07.202Z,12.38
2022-12-03T07:54:33.531Z,12.10
2022-12-03T07:57:01.779Z,12.63
2022-12-03T07:59:28.565Z,13.57
2022-12-03T08:01:55.037Z,12.57
2022-12-03T08:04:21.819Z,12.82
2022-12-03T08:06:48.358Z,13.40
2022-12-03T08:09:16.394Z,12.73
2022-12-03T08:11:48.297Z,13.13
2022-12-03T08:14:16.800Z,13.23
2022-12-03T08:16:44.581Z,13.02
2022-12-03T08:19:11.936Z,12.82
2022-12-03T08:21:38.943Z,13.15
2022-12-03T08:24:15.512Z,13.75
2022-12-03T08:26:44.295Z,15.40
2022-12-03T08:29:12.819Z,14.80
2022-12-03T08:31:39.587Z,14.38
2022-12-03T08:34:20.560Z,14.02
2022-12-03T08:36:48.537Z,14.35
2022-12-03T08:39:37.683Z,14.85
2022-12-03T08:42:32.202Z,14.10
2022-12-03T08:47:26.163Z,14.63
2022-12-03T08:49:58.299Z,14.13
2022-12-03T08:52:31.230Z,14.95
2022-12-03T08:54:57.831Z,14.20
2022-12-03T08:57:25.407Z,15.00
2022-12-03T08:59:55.673Z,15.15
2022-12-03T09:02:29.121Z,15.23
2022-12-03T09:04:55.944Z,14.88
2022-12-03T09:07:22.559Z,14.93
2022-12-03T09:09:49.053Z,16.40
2022-12-03T09:12:15.388Z,16.35
2022-12-03T09:14:41.761Z,16.35
2022-12-03T09:17:08.241Z,16.23
2022-12-03T09:19:34.678Z,16.75
2022-12-03T09:22:01.025Z,16.15
2022-12-03T09:24:27.396Z,17.05
2022-12-03T09:26:53.794Z,16.10
2022-12-03T09:29:20.137Z,17.73
2022-12-03T09:31:46.497Z,17.17
2022-12-03T09:34:12.947Z,17.48
2022-12-03T09:36:39.287Z,17.35
2022-12-03T09:39:05.695Z,17.77
2022-12-03T09:41:32.067Z,16.45
2022-12-03T09:44:06.188Z,18.48
2022-12-03T09:46:35.243Z,17.55
2022-12-03T09:49:02.957Z,18.73
2022-12-03T09:51:34.762Z,17.38
2022-12-03T09:54:03.991Z,17.98
2022-12-03T09:56:46.066Z,19.02
2022-12-03T09:59:14.035Z,17.13
2022-12-03T10:01:40.719Z,18.92
2022-12-03T10:04:07.394Z,18.30
2022-12-03T10:06:33.778Z,18.25
2022-12-03T10:09:00.371Z,18.85
2022-12-03T10:11:27.172Z,18.92
2022-12-03T10:13:55.024Z,18.00
2022-12-03T10:16:21.933Z,18.92
2022-12-03T10:18:51.317Z,19.52
2022-12-03T10:21:34.837Z,19.73
2022-12-03T10:24:19.449Z,19.75
2022-12-03T10:26:47.329Z,19.52
2022-12-03T10:29:17.008Z,19.65
2022-12-03T10:31:43.343Z,20.95
2022-12-03T10:34:09.872Z,20.08
2022-12-03T10:36:36.364Z,20.48
2022-12-03T10:39:10.808Z,19.77
2022-12-03T10:41:38.290Z,19.95
2022-12-03T10:44:25.917Z,21.52
2022-12-03T10:47:12.975Z,20.45
2022-12-03T10:49:42.595Z,20.48
2022-12-03T10:52:26.012Z,20.83
2022-12-03T10:54:52.900Z,21.27
2022-12-03T10:57:19.533Z,22.10
2022-12-03T10:59:45.974Z,20.95
2022-12-03T11:02:19.869Z,21.50
2022-12-03T11:07:15.692Z,21.00
2022-12-03T11:09:46.620Z,20.55
2022-12-03T11:12:24.628Z,20.20
2022-12-03T11:14:51.925Z,20.30
2022-12-03T11:17:47.706Z,22.02
2022-12-03T11:20:22.919Z,21.17
2022-12-03T11:22:54.370Z,21.90
2022-12-03T11:25:26.740Z,22.00
2022-12-03T11:28:11.619Z,21.65
2022-12-03T11:30:56.800Z,23.05
2022-12-03T11:33:27.298Z,21.90
2022-12-03T11:36:02.745Z,21.40
2022-12-03T11:38:38.187Z,22.98
2022-12-03T11:41:11.605Z,22.10
2022-12-03T11:43:53.053Z,21.98
2022-12-03T11:46:21.556Z,22.83
2022-12-03T11:48:49.694Z,22.25
2022-12-03T11:51:18.162Z,22.08
2022-12-03T11:53:44.885Z,20.42
2022-12-03T11:56:18.674Z,21.25
2022-12-03T11:58:47.098Z,22.45
2022-12-03T12:01:15.411Z,24.83
2022-12-03T12:03:43.571Z,21.40
2022-12-03T12:06:10.831Z,21.42
2022-12-03T12:08:49.419Z,22.38
2022-12-03T12:11:18.313Z,20.58
2022-12-03T12:13:44.800Z,20.80
2022-12-03T12:16:11.449Z,21.10
2022-12-03T12:18:46.565Z,20.15
2022-12-03T12:21:39.376Z,21.25
2022-12-03T12:24:31.785Z,21.35
2022-12-03T12:27:00.539Z,21.80
2022-12-03T12:29:27.307Z,22.17
2022-12-03T12:32:03.352Z,21.05
2022-12-03T12:34:29.808Z,20.63
2022-12-03T12:36:57.541Z,22.42
2022-12-03T12:39:25.404Z,22.42
2022-12-03T12:41:51.818Z,21.98
2022-12-03T12:44:18.623Z,22.67
2022-12-03T12:46:48.419Z,21.23
2022-12-03T12:49:15.492Z,21.15
2022-12-03T12:51:46.226Z,21.55
2022-12-03T12:54:14.473Z,20.98
2022-12-03T12:56:43.668Z,21.83
2022-12-03T12:59:16.113Z,20.30
2022-12-03T13:01:44.184Z,21.73
2022-12-03T13:04:21.499Z,21.88
2022-12-03T13:06:49.163Z,21.45
2022-12-03T13:09:18.960Z,21.92
2022-12-03T13:11:47.129Z,21.75
2022-12-03T13:14:21.222Z,22.27
2022-12-03T13:16:49.717Z,22.25
2022-12-03T13:19:25.668Z,21.27
2022-12-03T13:21:56.006Z,22.23
2022-12-03T13:24:44.815Z,22.23
2022-12-03T13:27:16.974Z,21.13
2022-12-03T13:29:44.159Z,20.77
2022-12-03T13:32:22.378Z,20.55
2022-12-03T13:34:50.409Z,20.90
2022-12-03T13:37:20.665Z,21.98
2022-12-03T13:39:52.161Z,22.08
2022-12-03T13:42:40.663Z,22.00
2022-12-03T13:45:16.106Z,23.65
2022-12-03T13:47:53.571Z,22.65
2022-12-03T13:50:25.372Z,22.08
2022-12-03T13:52:52.861Z,23.10
2022-12-03T13:55:27.911Z,22.80
2022-12-03T13:57:54.920Z,23.38
2022-12-03T14:00:21.332Z,22.50
2022-12-03T14:02:48.002Z,23.42
2022-12-03T14:05:14.993Z,21.30
2022-12-03T14:07:41.583Z,21.45
2022-12-03T14:10:09.371Z,23.40
2022-12-03T14:12:35.845Z,21.13
2022-12-03T14:15:03.730Z,22.33
2022-12-03T14:17:30.967Z,20.40
2022-12-03T14:20:00.462Z,21.48
2022-12-03T14:22:26.939Z,22.08
2022-12-03T14:24:53.522Z,21.27
2022-12-03T14:27:20.908Z,22.20
2022-12-03T14:29:47.737Z,21.92
2022-12-03T14:32:14.137Z,21.25
2022-12-03T14:34:40.667Z,22.42
2022-12-03T14:37:07.054Z,20.45
2022-12-03T14:39:33.513Z,21.85
2022-12-03T14:42:14.892Z,20.80
2022-12-03T14:44:44.082Z,22.33
2022-12-03T14:47:11.247Z,20.83
2022-12-03T14:49:37.747Z,20.67
2022-12-03T14:52:05.357Z,21.15
2022-12-03T14:54:33.988Z,22.80
2022-12-03T14:57:01.646Z,21.23
2022-12-03T14:59:28.198Z,20.67
2022-12-03T15:01:54.757Z,21.27
2022-12-03T15:04:21.321Z,21.83
2022-12-03T15:06:47.760Z,22.00
2022-12-03T15:09:14.165Z,21.40
2022-12-03T15:11:45.949Z,21.13
2022-12-03T15:14:12.893Z,21.42
2022-12-03T15:16:39.281Z,20.40
2022-12-03T15:19:05.668Z,22.48
2022-12-03T15:21:34.766Z,20.70
2022-12-03T15:24:02.055Z,22.15
2022-12-03T15:26:28.703Z,22.52
2022-12-03T15:28:55.017Z,21.25
2022-12-03T15:31:21.487Z,22.52
2022-12-03T15:33:48.004Z,21.90
2022-12-03T15:36:14.429Z,21.20
2022-12-03T15:38:40.766Z,22.90
2022-12-03T15:41:24.079Z,21.58
2022-12-03T15:43:52.174Z,21.60
2022-12-03T15:46:22.191Z,22.15
2022-12-03T15:48:48.974Z,21.25
2022-12-03T15:51:15.578Z,21.75
2022-12-03T15:53:42.517Z,22.88
2022-12-03T15:56:09.005Z,21.67
2022-12-03T15:58:35.322Z,21.20
2022-12-03T16:01:01.810Z,21.85
2022-12-03T16:03:28.293Z,20.27
2022-12-03T16:05:54.684Z,21.23
2022-12-03T16:08:21.441Z,20.85
2022-12-03T16:10:47.896Z,20.73
2022-12-03T16:13:16.729Z,22.15
2022-12-03T16:15:43.232Z,23.10
2022-12-03T16:18:11.166Z,22.33
2022-12-03T16:20:37.520Z,22.83
2022-12-03T16:23:04.058Z,21.92
2022-12-03T16:25:30.425Z,22.33
2022-12-03T16:27:56.776Z,20.42
2022-12-03T16:30:24.562Z,23.33
2022-12-03T16:32:51.057Z,23.77
2022-12-03T16:35:17.459Z,22.55
2022-12-03T16:37:43.870Z,21.88
2022-12-03T16:40:10.569Z,21.85
2022-12-03T16:42:37.313Z,21.65
2022-12-03T16:45:03.929Z,23.65
2022-12-03T16:47:34.064Z,21.70
2022-12-03T16:50:03.850Z,23.83
2022-12-03T16:52:30.196Z,23.08
2022-12-03T16:54:56.590Z,23.05
2022-12-03T16:57:22.924Z,23.67
2022-12-03T16:59:49.267Z,21.02
2022-12-03T17:02:15.710Z,22.08
2022-12-03T17:04:42.265Z,21.75
2022-12-03T17:07:08.632Z,22.88
2022-12-03T17:09:34.981Z,23.02
2022-12-03T17:12:01.458Z,25.20
2022-12-03T17:14:33.085Z,25.63
2022-12-03T17:16:59.922Z,26.17
2022-12-03T17:19:26.317Z,24.45
2022-12-03T17:21:53.973Z,25.60
2022-12-03T17:24:21.301Z,23.63
2022-12-03T17:26:47.721Z,22.63
2022-12-03T17:29:14.232Z,21.80
2022-12-03T17:31:42.434Z,23.05
2022-12-03T17:34:12.057Z,21.42
2022-12-03T17:36:38.373Z,20.98
2022-12-03T17:39:04.749Z,21.23
2022-12-03T17:41:31.142Z,21.63
2022-12-03T17:43:57.474Z,21.55
2022-12-03T17:46:23.963Z,23.08
2022-12-03T17:48:50.383Z,21.50
2022-12-03T17:51:16.968Z,22.52
2022-12-03T17:53:43.297Z,23.08
2022-12-03T17:56:11.946Z,23.08
2022-12-03T17:58:38.295Z,22.17
2022-12-03T18:01:05.577Z,23.00
2022-12-03T18:03:32.022Z,22.92
2022-12-03T18:05:58.399Z,22.77
2022-12-03T18:08:24.770Z,22.52
2022-12-03T18:10:51.117Z,21.48
2022-12-03T18:13:17.451Z,23.17
2022-12-03T18:15:43.932Z,22.42
2022-12-03T18:18:10.388Z,23.52
2022-12-03T18:20:37.002Z,22.13
2022-12-03T18:23:03.535Z,22.58
2022-12-03T18:25:30.362Z,23.35
2022-12-03T18:27:57.046Z,22.77
2022-12-03T18:30:23.490Z,23.73
2022-12-03T18:32:50.594Z,22.00
2022-12-03T18:35:17.116Z,22.27
2022-12-03T18:37:43.621Z,22.63
2022-12-03T18:40:17.423Z,21.52
2022-12-03T18:42:43.816Z,22.83
2022-12-03T18:45:11.555Z,22.40
2022-12-03T18:47:37.929Z,24.25
2022-12-03T18:50:05.850Z,23.33
2022-12-03T18:52:32.236Z,23.52
2022-12-03T18:54:58.593Z,23.20
2022-12-03T18:57:24.908Z,23.35
2022-12-03T18:59:51.382Z,23.33
2022-12-03T19:05:07.778Z,22.60
2022-12-03T19:07:34.260Z,21.80
2022-12-03T19:10:00.666Z,22.60
2022-12-03T19:12:27.244Z,22.98
2022-12-03T19:14:53.660Z,24.50
2022-12-03T19:17:21.246Z,24.17
2022-12-03T19:19:47.605Z,23.55
2022-12-03T19:22:14.032Z,23.45
2022-12-03T19:24:40.461Z,21.75
2022-12-03T19:27:06.784Z,22.58
2022-12-03T19:29:33.164Z,23.67
2022-12-03T19:31:59.589Z,21.77
2022-12-03T19:34:26.232Z,23.50
2022-12-03T19:36:52.668Z,22.92
2022-12-03T19:39:19.039Z,23.17
2022-12-03T19:41:45.500Z,22.15
2022-12-03T19:44:13.840Z,24.58
2022-12-03T19:46:40.733Z,21.77
2022-12-03T19:49:07.396Z,23.70
2022-12-03T19:51:35.611Z,22.95
2022-12-03T19:54:06.762Z,21.60
2022-12-03T19:56:33.165Z,22.75
2022-12-03T19:58:59.661Z,23.17
2022-12-03T20:01:33.249Z,22.90
2022-12-03T20:04:01.293Z,21.83
2022-12-03T20:06:29.824Z,22.90
2022-12-03T20:09:00.859Z,22.08
2022-12-03T20:11:30.374Z,22.77
2022-12-03T20:13:59.042Z,22.65
2022-12-03T20:16:26.201Z,21.10
2022-12-03T20:18:56.857Z,22.00
2022-12-03T20:21:23.312Z,21.77
2022-12-03T20:23:49.682Z,22.30
2022-12-03T20:26:18.833Z,21.23
2022-12-03T20:28:45.453Z,22.17
2022-12-03T20:31:14.519Z,21.95
2022-12-03T20:33:43.026Z,22.33
2022-12-03T20:36:10.510Z,22.95
2022-12-03T20:38:37.179Z,22.45
2022-12-03T20:41:06.677Z,22.25
2022-12-03T20:43:33.171Z,21.15
2022-12-03T20:46:07.534Z,20.73
2022-12-03T20:48:34.201Z,20.70
2022-12-03T20:51:06.856Z,21.13
2022-12-03T20:53:33.759Z,21.60
2022-12-03T20:56:01.270Z,22.83
2022-12-03T20:58:28.502Z,20.48
2022-12-03T21:00:55.276Z,20.02
2022-12-03T21:03:22.085Z,20.33
2022-12-03T21:05:48.489Z,20.95
2022-12-03T21:08:14.871Z,20.48
2022-12-03T21:10:45.101Z,21.65
2022-12-03T21:13:18.141Z,21.45
2022-12-03T21:15:45.192Z,21.27
2022-12-03T21:18:14.538Z,20.30
2022-12-03T21:20:45.490Z,21.98
2022-12-03T21:23:12.754Z,21.30
2022-12-03T21:25:39.125Z,21.15
2022-12-03T21:28:07.210Z,20.08
2022-12-03T21:30:34.341Z,22.42
2022-12-03T21:33:00.713Z,20.55
2022-12-03T21:35:27.091Z,20.52
2022-12-03T21:37:53.548Z,20.58
2022-12-03T21:40:20.080Z,21.08
2022-12-03T21:42:46.437Z,20.13
2022-12-03T21:45:12.829Z,20.38
2022-12-03T21:47:39.286Z,21.80
2022-12-03T21:50:07.387Z,19.17
2022-12-03T21:52:34.885Z,20.80
2022-12-03T21:55:01.213Z,20.17
2022-12-03T21:57:27.603Z,20.77
2022-12-03T21:59:55.361Z,20.20
2022-12-03T22:02:22.189Z,19.63
2022-12-03T22:04:51.702Z,20.30
2022-12-03T22:07:18.084Z,19.67
2022-12-03T22:09:44.438Z,19.75
2022-12-03T22:12:10.786Z,20.15
2022-12-03T22:14:37.352Z,20.20
2022-12-03T22:17:03.727Z,19.70
2022-12-03T22:19:30.126Z,19.30
2022-12-03T22:21:56.509Z,19.30
2022-12-03T22:24:23.932Z,19.80
2022-12-03T22:26:52.029Z,20.40
2022-12-03T22:29:18.378Z,18.70
2022-12-03T22:31:44.725Z,19.20
2022-12-03T22:34:11.153Z,18.77
2022-12-03T22:36:37.514Z,18.23
2022-12-03T22:39:03.881Z,19.08
2022-12-03T22:41:30.365Z,17.98
2022-12-03T22:43:56.689Z,18.08
2022-12-03T22:46:23.549Z,18.92
2022-12-03T22:48:49.939Z,18.40
2022-12-03T22:51:21.677Z,18.02
2022-12-03T22:53:53.001Z,17.38
2022-12-03T22:56:19.313Z,17.33
2022-12-03T22:58:45.757Z,17.80
2022-12-03T23:01:30.187Z,17.13
2022-12-03T23:03:56.664Z,16.48
2022-12-03T23:06:23.538Z,17.35
2022-12-03T23:08:50.493Z,17.15
2022-12-03T23:11:17.391Z,17.00
2022-12-03T23:13:43.890Z,17.10
2022-12-03T23:16:18.016Z,18.10
2022-12-03T23:18:44.787Z,17.33
2022-12-03T23:21:28.857Z,17.25
2022-12-03T23:23:56.113Z,17.30
2022-12-03T23:26:22.603Z,17.50
2022-12-03T23:28:49.870Z,16.10
2022-12-03T23:31:26.518Z,17.50
2022-12-03T23:33:53.787Z,17.75
2022-12-03T23:36:21.230Z,16.98
2022-12-03T23:38:47.749Z,17.05
2022-12-03T23:41:16.902Z,16.05
2022-12-03T23:43:43.740Z,15.98
2022-12-03T23:46:15.184Z,15.82
2022-12-03T23:48:42.085Z,17.13
2022-12-03T23:51:14.945Z,16.63
2022-12-03T23:53:41.686Z,15.98
2022-12-03T23:56:09.740Z,17.60
2022-12-03T23:58:36.149Z,16.67
